sensor_id;sensor_type;location;lat;lon;timestamp;P1;durP1;ratioP1;P2;durP2;ratioP2
14121;SDS011;7139;48.114;11.442;2024-03-22T00:01:46;12.77;;;11.47;;
14121;SDS011;7139;48.114;11.442;2024-03-22T00:04:13;12.07;;;10.60;;
14121;SDS011;7139;48.114;11.442;2024-03-22T00:06:40;12.37;;;11.03;;
14121;SDS011;7139;48.114;11.442;2024-03-22T00:09:07;11.70;;;10.57;;
14121;SDS011;7139;48.114;11.442;2024-03-22T00:11:34;12.47;;;11.20;;
14121;SDS011;7139;48.114;11.442;2024-03-22T00:14:01;12.50;;;11.20;;
14121;SDS011;7139;48.114;11.442;2024-03-22T00:16:28;12.80;;;11.50;;
14121;SDS011;7139;48.114;11.442;2024-03-22T00:18:54;12.87;;;11.57;;
14121;SDS011;7139;48.114;11.442;2024-03-22T00:21:21;13.47;;;12.07;;
14121;SDS011;7139;48.114;11.442;2024-03-22T00:23:47;12.80;;;11.43;;
14121;SDS011;7139;48.114;11.442;2024-03-22T00:26:13;12.73;;;11.43;;
14121;SDS011;7139;48.114;11.442;2024-03-22T00:28:40;13.57;;;12.17;;
14121;SDS011;7139;48.114;11.442;2024-03-22T00:31:08;12.27;;;11.07;;
14121;SDS011;7139;48.114;11.442;2024-03-22T00:33:34;12.00;;;10.90;;
14121;SDS011;7139;48.114;11.442;2024-03-22T00:36:01;13.73;;;12.33;;
14121;SDS011;7139;48.114;11.442;2024-03-22T00:38:27;13.47;;;12.07;;
14121;SDS011;7139;48.114;11.442;2024-03-22T00:40:54;14.10;;;11.80;;
14121;SDS011;7139;48.114;11.442;2024-03-22T00:43:20;13.87;;;12.30;;
14121;SDS011;7139;48.114;11.442;2024-03-22T00:45:47;13.20;;;11.90;;
14121;SDS011;7139;48.114;11.442;2024-03-22T00:48:14;12.93;;;11.53;;
14121;SDS011;7139;48.114;11.442;2024-03-22T00:50:41;13.00;;;11.50;;
14121;SDS011;7139;48.114;11.442;2024-03-22T00:53:07;12.70;;;11.50;;
14121;SDS011;7139;48.114;11.442;2024-03-22T00:55:35;13.70;;;12.23;;
14121;SDS011;7139;48.114;11.442;2024-03-22T00:58:01;13.50;;;12.10;;
14121;SDS011;7139;48.114;11.442;2024-03-22T01:00:28;15.03;;;13.43;;
14121;SDS011;7139;48.114;11.442;2024-03-22T01:02:53;14.97;;;13.07;;
14121;SDS011;7139;48.114;11.442;2024-03-22T01:05:22;14.90;;;13.33;;
14121;SDS011;7139;48.114;11.442;2024-03-22T01:07:47;14.33;;;12.80;;
14121;SDS011;7139;48.114;11.442;2024-03-22T01:10:14;14.40;;;12.90;;
14121;SDS011;7139;48.114;11.442;2024-03-22T01:12:40;15.03;;;12.87;;
14121;SDS011;7139;48.114;11.442;2024-03-22T01:15:07;14.50;;;13.00;;
14121;SDS011;7139;48.114;11.442;2024-03-22T01:17:34;15.77;;;13.97;;
14121;SDS011;7139;48.114;11.442;2024-03-22T01:20:00;15.30;;;13.63;;
14121;SDS011;7139;48.114;11.442;2024-03-22T01:22:28;14.63;;;12.23;;
14121;SDS011;7139;48.114;11.442;2024-03-22T01:24:54;14.30;;;12.87;;
14121;SDS011;7139;48.114;11.442;2024-03-22T01:27:20;17.27;;;13.73;;
14121;SDS011;7139;48.114;11.442;2024-03-22T01:29:47;16.10;;;13.50;;
14121;SDS011;7139;48.114;11.442;2024-03-22T01:32:13;14.43;;;12.93;;
14121;SDS011;7139;48.114;11.442;2024-03-22T01:34:39;14.47;;;12.97;;
14121;SDS011;7139;48.114;11.442;2024-03-22T01:37:05;14.10;;;12.60;;
14121;SDS011;7139;48.114;11.442;2024-03-22T01:39:34;15.27;;;13.67;;
14121;SDS011;7139;48.114;11.442;2024-03-22T01:42:00;15.50;;;13.40;;
14121;SDS011;7139;48.114;11.442;2024-03-22T01:44:27;15.57;;;13.50;;
14121;SDS011;7139;48.114;11.442;2024-03-22T01:46:53;14.60;;;12.93;;
14121;SDS011;7139;48.114;11.442;2024-03-22T01:49:20;14.53;;;12.97;;
14121;SDS011;7139;48.114;11.442;2024-03-22T01:51:47;16.53;;;13.93;;
14121;SDS011;7139;48.114;11.442;2024-03-22T01:54:14;14.20;;;12.47;;
14121;SDS011;7139;48.114;11.442;2024-03-22T01:56:42;14.27;;;12.77;;
14121;SDS011;7139;48.114;11.442;2024-03-22T01:59:09;13.63;;;12.13;;
14121;SDS011;7139;48.114;11.442;2024-03-22T02:01:35;13.70;;;12.30;;
14121;SDS011;7139;48.114;11.442;2024-03-22T02:04:02;17.37;;;13.00;;
14121;SDS011;7139;48.114;11.442;2024-03-22T02:06:28;15.23;;;13.60;;
14121;SDS011;7139;48.114;11.442;2024-03-22T02:08:55;14.77;;;12.73;;
14121;SDS011;7139;48.114;11.442;2024-03-22T02:11:22;14.07;;;12.47;;
14121;SDS011;7139;48.114;11.442;2024-03-22T02:13:50;13.37;;;11.97;;
14121;SDS011;7139;48.114;11.442;2024-03-22T02:16:16;14.97;;;13.23;;
14121;SDS011;7139;48.114;11.442;2024-03-22T02:18:43;13.40;;;11.97;;
14121;SDS011;7139;48.114;11.442;2024-03-22T02:21:09;14.40;;;12.60;;
14121;SDS011;7139;48.114;11.442;2024-03-22T02:23:38;14.37;;;12.87;;
14121;SDS011;7139;48.114;11.442;2024-03-22T02:26:04;16.67;;;13.33;;
14121;SDS011;7139;48.114;11.442;2024-03-22T02:28:32;14.97;;;13.40;;
14121;SDS011;7139;48.114;11.442;2024-03-22T02:30:59;15.10;;;13.50;;
14121;SDS011;7139;48.114;11.442;2024-03-22T02:33:26;14.37;;;12.90;;
14121;SDS011;7139;48.114;11.442;2024-03-22T02:35:52;17.27;;;13.80;;
14121;SDS011;7139;48.114;11.442;2024-03-22T02:38:19;15.47;;;13.57;;
14121;SDS011;7139;48.114;11.442;2024-03-22T02:40:46;15.63;;;13.63;;
14121;SDS011;7139;48.114;11.442;2024-03-22T02:43:14;15.73;;;13.67;;
14121;SDS011;7139;48.114;11.442;2024-03-22T02:45:40;14.37;;;12.87;;
14121;SDS011;7139;48.114;11.442;2024-03-22T02:48:07;16.67;;;14.80;;
14121;SDS011;7139;48.114;11.442;2024-03-22T02:50:32;16.93;;;14.10;;
14121;SDS011;7139;48.114;11.442;2024-03-22T02:52:59;14.73;;;13.20;;
14121;SDS011;7139;48.114;11.442;2024-03-22T02:55:25;17.40;;;14.37;;
14121;SDS011;7139;48.114;11.442;2024-03-22T02:57:53;16.60;;;13.93;;
14121;SDS011;7139;48.114;11.442;2024-03-22T03:00:20;16.77;;;13.43;;
14121;SDS011;7139;48.114;11.442;2024-03-22T03:02:47;16.00;;;14.20;;
14121;SDS011;7139;48.114;11.442;2024-03-22T03:05:13;15.27;;;12.70;;
14121;SDS011;7139;48.114;11.442;2024-03-22T03:07:40;16.27;;;13.70;;
14121;SDS011;7139;48.114;11.442;2024-03-22T03:10:06;15.20;;;13.33;;
14121;SDS011;7139;48.114;11.442;2024-03-22T03:12:33;16.13;;;13.67;;
14121;SDS011;7139;48.114;11.442;2024-03-22T03:15:00;15.20;;;13.57;;
14121;SDS011;7139;48.114;11.442;2024-03-22T03:17:27;16.70;;;13.43;;
14121;SDS011;7139;48.114;11.442;2024-03-22T03:19:53;17.30;;;14.40;;
14121;SDS011;7139;48.114;11.442;2024-03-22T03:22:20;15.60;;;14.00;;
14121;SDS011;7139;48.114;11.442;2024-03-22T03:24:46;15.27;;;13.43;;
14121;SDS011;7139;48.114;11.442;2024-03-22T03:27:13;15.17;;;13.57;;
14121;SDS011;7139;48.114;11.442;2024-03-22T03:29:38;16.23;;;13.53;;
14121;SDS011;7139;48.114;11.442;2024-03-22T03:32:06;16.53;;;13.73;;
14121;SDS011;7139;48.114;11.442;2024-03-22T03:34:32;15.00;;;13.40;;
14121;SDS011;7139;48.114;11.442;2024-03-22T03:36:59;15.80;;;14.07;;
14121;SDS011;7139;48.114;11.442;2024-03-22T03:39:26;18.93;;;14.60;;
14121;SDS011;7139;48.114;11.442;2024-03-22T03:41:54;16.07;;;14.37;;
14121;SDS011;7139;48.114;11.442;2024-03-22T03:44:20;15.40;;;13.53;;
14121;SDS011;7139;48.114;11.442;2024-03-22T03:46:46;15.37;;;13.73;;
14121;SDS011;7139;48.114;11.442;2024-03-22T03:49:14;14.87;;;13.13;;
14121;SDS011;7139;48.114;11.442;2024-03-22T03:51:40;15.50;;;13.90;;
14121;SDS011;7139;48.114;11.442;2024-03-22T03:54:06;15.20;;;13.60;;
14121;SDS011;7139;48.114;11.442;2024-03-22T03:56:33;14.67;;;12.67;;
14121;SDS011;7139;48.114;11.442;2024-03-22T03:58:59;14.90;;;13.30;;
14121;SDS011;7139;48.114;11.442;2024-03-22T04:01:25;15.23;;;13.63;;
14121;SDS011;7139;48.114;11.442;2024-03-22T04:03:51;15.57;;;13.90;;
14121;SDS011;7139;48.114;11.442;2024-03-22T04:06:19;15.17;;;13.53;;
14121;SDS011;7139;48.114;11.442;2024-03-22T04:08:45;15.70;;;13.67;;
14121;SDS011;7139;48.114;11.442;2024-03-22T04:11:12;15.43;;;13.70;;
14121;SDS011;7139;48.114;11.442;2024-03-22T04:13:38;15.53;;;13.90;;
14121;SDS011;7139;48.114;11.442;2024-03-22T04:16:05;18.30;;;13.70;;
14121;SDS011;7139;48.114;11.442;2024-03-22T04:18:31;15.43;;;13.47;;
14121;SDS011;7139;48.114;11.442;2024-03-22T04:20:58;16.27;;;14.23;;
14121;SDS011;7139;48.114;11.442;2024-03-22T04:23:26;17.57;;;14.43;;
14121;SDS011;7139;48.114;11.442;2024-03-22T04:25:53;17.33;;;14.00;;
14121;SDS011;7139;48.114;11.442;2024-03-22T04:28:20;14.93;;;13.33;;
14121;SDS011;7139;48.114;11.442;2024-03-22T04:30:54;17.17;;;14.27;;
14121;SDS011;7139;48.114;11.442;2024-03-22T04:33:20;15.13;;;13.37;;
14121;SDS011;7139;48.114;11.442;2024-03-22T04:35:47;15.13;;;13.53;;
14121;SDS011;7139;48.114;11.442;2024-03-22T04:38:13;16.03;;;13.70;;
14121;SDS011;7139;48.114;11.442;2024-03-22T04:40:41;18.80;;;13.60;;
14121;SDS011;7139;48.114;11.442;2024-03-22T04:43:08;16.90;;;13.67;;
14121;SDS011;7139;48.114;11.442;2024-03-22T04:45:35;15.67;;;13.53;;
14121;SDS011;7139;48.114;11.442;2024-03-22T04:48:01;16.43;;;13.97;;
14121;SDS011;7139;48.114;11.442;2024-03-22T04:50:28;15.13;;;12.87;;
14121;SDS011;7139;48.114;11.442;2024-03-22T04:52:54;15.03;;;13.03;;
14121;SDS011;7139;48.114;11.442;2024-03-22T04:55:21;17.00;;;13.27;;
14121;SDS011;7139;48.114;11.442;2024-03-22T04:57:56;16.13;;;12.37;;
14121;SDS011;7139;48.114;11.442;2024-03-22T05:00:26;14.87;;;12.93;;
14121;SDS011;7139;48.114;11.442;2024-03-22T05:02:52;15.13;;;13.07;;
14121;SDS011;7139;48.114;11.442;2024-03-22T05:05:20;15.67;;;13.50;;
14121;SDS011;7139;48.114;11.442;2024-03-22T05:07:45;14.57;;;13.03;;
14121;SDS011;7139;48.114;11.442;2024-03-22T05:10:12;16.23;;;13.77;;
14121;SDS011;7139;48.114;11.442;2024-03-22T05:12:38;16.40;;;14.03;;
14121;SDS011;7139;48.114;11.442;2024-03-22T05:15:07;14.50;;;13.00;;
14121;SDS011;7139;48.114;11.442;2024-03-22T05:17:33;15.37;;;13.67;;
14121;SDS011;7139;48.114;11.442;2024-03-22T05:20:00;16.53;;;13.77;;
14121;SDS011;7139;48.114;11.442;2024-03-22T05:22:27;18.30;;;13.93;;
14121;SDS011;7139;48.114;11.442;2024-03-22T05:24:54;16.03;;;14.13;;
14121;SDS011;7139;48.114;11.442;2024-03-22T05:27:20;16.43;;;13.10;;
14121;SDS011;7139;48.114;11.442;2024-03-22T05:29:46;16.13;;;14.27;;
14121;SDS011;7139;48.114;11.442;2024-03-22T05:32:14;17.17;;;14.43;;
14121;SDS011;7139;48.114;11.442;2024-03-22T05:34:41;14.80;;;13.13;;
14121;SDS011;7139;48.114;11.442;2024-03-22T05:37:06;15.50;;;13.47;;
14121;SDS011;7139;48.114;11.442;2024-03-22T05:39:34;15.83;;;13.73;;
14121;SDS011;7139;48.114;11.442;2024-03-22T05:41:59;15.03;;;13.30;;
14121;SDS011;7139;48.114;11.442;2024-03-22T05:44:26;16.63;;;13.87;;
14121;SDS011;7139;48.114;11.442;2024-03-22T05:46:52;15.60;;;13.80;;
14121;SDS011;7139;48.114;11.442;2024-03-22T05:49:20;16.07;;;14.07;;
14121;SDS011;7139;48.114;11.442;2024-03-22T05:51:46;15.87;;;14.23;;
14121;SDS011;7139;48.114;11.442;2024-03-22T05:54:13;16.00;;;13.87;;
14121;SDS011;7139;48.114;11.442;2024-03-22T05:56:39;15.33;;;13.73;;
14121;SDS011;7139;48.114;11.442;2024-03-22T05:59:06;15.57;;;13.97;;
14121;SDS011;7139;48.114;11.442;2024-03-22T06:01:32;15.80;;;13.70;;
14121;SDS011;7139;48.114;11.442;2024-03-22T06:03:58;16.57;;;12.97;;
14121;SDS011;7139;48.114;11.442;2024-03-22T06:06:26;14.47;;;12.57;;
14121;SDS011;7139;48.114;11.442;2024-03-22T06:08:53;14.87;;;13.27;;
14121;SDS011;7139;48.114;11.442;2024-03-22T06:11:19;16.03;;;13.17;;
14121;SDS011;7139;48.114;11.442;2024-03-22T06:13:46;15.77;;;14.07;;
14121;SDS011;7139;48.114;11.442;2024-03-22T06:16:12;14.83;;;13.33;;
14121;SDS011;7139;48.114;11.442;2024-03-22T06:18:39;15.50;;;13.63;;
14121;SDS011;7139;48.114;11.442;2024-03-22T06:21:05;15.40;;;13.57;;
14121;SDS011;7139;48.114;11.442;2024-03-22T06:23:33;15.40;;;12.90;;
14121;SDS011;7139;48.114;11.442;2024-03-22T06:26:00;14.13;;;12.33;;
14121;SDS011;7139;48.114;11.442;2024-03-22T06:28:27;15.07;;;13.57;;
14121;SDS011;7139;48.114;11.442;2024-03-22T06:30:54;14.27;;;12.77;;
14121;SDS011;7139;48.114;11.442;2024-03-22T06:33:20;14.83;;;13.17;;
14121;SDS011;7139;48.114;11.442;2024-03-22T06:35:46;13.73;;;11.60;;
14121;SDS011;7139;48.114;11.442;2024-03-22T06:38:13;14.30;;;12.80;;
14121;SDS011;7139;48.114;11.442;2024-03-22T06:40:40;13.67;;;12.27;;
14121;SDS011;7139;48.114;11.442;2024-03-22T06:43:07;14.67;;;13.17;;
14121;SDS011;7139;48.114;11.442;2024-03-22T06:45:34;13.77;;;12.33;;
14121;SDS011;7139;48.114;11.442;2024-03-22T06:48:00;13.60;;;12.20;;
14121;SDS011;7139;48.114;11.442;2024-03-22T06:50:26;14.17;;;12.67;;
14121;SDS011;7139;48.114;11.442;2024-03-22T06:52:53;14.17;;;12.67;;
14121;SDS011;7139;48.114;11.442;2024-03-22T06:55:19;14.17;;;12.00;;
14121;SDS011;7139;48.114;11.442;2024-03-22T06:57:48;13.47;;;11.73;;
14121;SDS011;7139;48.114;11.442;2024-03-22T07:00:15;14.60;;;11.67;;
14121;SDS011;7139;48.114;11.442;2024-03-22T07:02:42;12.63;;;11.33;;
14121;SDS011;7139;48.114;11.442;2024-03-22T07:05:09;13.93;;;12.33;;
14121;SDS011;7139;48.114;11.442;2024-03-22T07:07:36;13.27;;;11.80;;
14121;SDS011;7139;48.114;11.442;2024-03-22T07:10:03;12.13;;;10.83;;
14121;SDS011;7139;48.114;11.442;2024-03-22T07:12:31;13.13;;;11.47;;
14121;SDS011;7139;48.114;11.442;2024-03-22T07:14:58;13.07;;;11.70;;
14121;SDS011;7139;48.114;11.442;2024-03-22T07:17:25;13.20;;;11.60;;
14121;SDS011;7139;48.114;11.442;2024-03-22T07:19:51;14.80;;;12.10;;
14121;SDS011;7139;48.114;11.442;2024-03-22T07:22:18;13.77;;;12.23;;
14121;SDS011;7139;48.114;11.442;2024-03-22T07:24:44;12.37;;;11.17;;
14121;SDS011;7139;48.114;11.442;2024-03-22T07:27:12;12.90;;;11.60;;
14121;SDS011;7139;48.114;11.442;2024-03-22T07:29:39;13.70;;;11.80;;
14121;SDS011;7139;48.114;11.442;2024-03-22T07:32:07;13.27;;;11.90;;
14121;SDS011;7139;48.114;11.442;2024-03-22T07:34:33;12.70;;;11.50;;
14121;SDS011;7139;48.114;11.442;2024-03-22T07:37:00;13.30;;;11.50;;
14121;SDS011;7139;48.114;11.442;2024-03-22T07:39:25;13.20;;;11.73;;
14121;SDS011;7139;48.114;11.442;2024-03-22T07:41:52;12.30;;;10.97;;
14121;SDS011;7139;48.114;11.442;2024-03-22T07:44:18;11.97;;;10.57;;
14121;SDS011;7139;48.114;11.442;2024-03-22T07:46:45;11.50;;;10.30;;
14121;SDS011;7139;48.114;11.442;2024-03-22T07:49:13;10.93;;;9.87;;
14121;SDS011;7139;48.114;11.442;2024-03-22T07:51:39;11.73;;;10.47;;
14121;SDS011;7139;48.114;11.442;2024-03-22T07:54:05;11.20;;;10.07;;
14121;SDS011;7139;48.114;11.442;2024-03-22T07:56:32;11.47;;;10.27;;
14121;SDS011;7139;48.114;11.442;2024-03-22T07:58:58;11.90;;;10.70;;
14121;SDS011;7139;48.114;11.442;2024-03-22T08:01:25;12.00;;;10.80;;
14121;SDS011;7139;48.114;11.442;2024-03-22T08:03:51;11.23;;;10.13;;
14121;SDS011;7139;48.114;11.442;2024-03-22T08:06:19;10.57;;;9.57;;
14121;SDS011;7139;48.114;11.442;2024-03-22T08:08:45;9.90;;;8.90;;
14121;SDS011;7139;48.114;11.442;2024-03-22T08:11:12;10.23;;;9.27;;
14121;SDS011;7139;48.114;11.442;2024-03-22T08:13:38;9.27;;;8.40;;
14121;SDS011;7139;48.114;11.442;2024-03-22T08:16:05;15.33;;;9.40;;
14121;SDS011;7139;48.114;11.442;2024-03-22T08:18:31;9.60;;;8.23;;
14121;SDS011;7139;48.114;11.442;2024-03-22T08:20:58;8.63;;;7.77;;
14121;SDS011;7139;48.114;11.442;2024-03-22T08:23:25;8.70;;;7.90;;
14121;SDS011;7139;48.114;11.442;2024-03-22T08:25:52;8.00;;;7.30;;
14121;SDS011;7139;48.114;11.442;2024-03-22T08:28:18;8.37;;;7.57;;
14121;SDS011;7139;48.114;11.442;2024-03-22T08:30:45;8.47;;;7.67;;
14121;SDS011;7139;48.114;11.442;2024-03-22T08:33:11;7.70;;;6.90;;
14121;SDS011;7139;48.114;11.442;2024-03-22T08:35:38;7.53;;;6.83;;
14121;SDS011;7139;48.114;11.442;2024-03-22T08:38:04;6.43;;;5.83;;
14121;SDS011;7139;48.114;11.442;2024-03-22T08:40:36;6.53;;;5.93;;
14121;SDS011;7139;48.114;11.442;2024-03-22T08:43:02;7.53;;;6.23;;
14121;SDS011;7139;48.114;11.442;2024-03-22T08:45:29;7.73;;;5.97;;
14121;SDS011;7139;48.114;11.442;2024-03-22T08:47:55;6.40;;;5.80;;
14121;SDS011;7139;48.114;11.442;2024-03-22T08:50:22;6.20;;;5.30;;
14121;SDS011;7139;48.114;11.442;2024-03-22T08:52:48;6.43;;;5.57;;
14121;SDS011;7139;48.114;11.442;2024-03-22T08:55:15;5.57;;;5.00;;
14121;SDS011;7139;48.114;11.442;2024-03-22T08:57:42;5.70;;;4.67;;
14121;SDS011;7139;48.114;11.442;2024-03-22T09:00:09;5.27;;;4.80;;
14121;SDS011;7139;48.114;11.442;2024-03-22T09:02:36;5.50;;;4.90;;
14121;SDS011;7139;48.114;11.442;2024-03-22T09:05:03;6.17;;;5.10;;
14121;SDS011;7139;48.114;11.442;2024-03-22T09:07:29;5.83;;;5.20;;
14121;SDS011;7139;48.114;11.442;2024-03-22T09:09:56;5.27;;;4.73;;
14121;SDS011;7139;48.114;11.442;2024-03-22T09:12:22;6.17;;;4.00;;
14121;SDS011;7139;48.114;11.442;2024-03-22T09:14:50;4.67;;;3.83;;
14121;SDS011;7139;48.114;11.442;2024-03-22T09:17:15;4.27;;;3.87;;
14121;SDS011;7139;48.114;11.442;2024-03-22T09:19:42;4.53;;;4.13;;
14121;SDS011;7139;48.114;11.442;2024-03-22T09:22:08;4.90;;;4.00;;
14121;SDS011;7139;48.114;11.442;2024-03-22T09:24:35;6.37;;;4.23;;
14121;SDS011;7139;48.114;11.442;2024-03-22T09:27:01;4.60;;;4.17;;
14121;SDS011;7139;48.114;11.442;2024-03-22T09:29:33;6.93;;;3.90;;
14121;SDS011;7139;48.114;11.442;2024-03-22T09:32:00;5.30;;;3.67;;
14121;SDS011;7139;48.114;11.442;2024-03-22T09:34:28;5.43;;;4.37;;
14121;SDS011;7139;48.114;11.442;2024-03-22T09:36:54;5.43;;;4.10;;
14121;SDS011;7139;48.114;11.442;2024-03-22T09:39:21;6.07;;;4.10;;
14121;SDS011;7139;48.114;11.442;2024-03-22T09:41:47;6.00;;;4.47;;
14121;SDS011;7139;48.114;11.442;2024-03-22T09:44:17;5.57;;;4.17;;
14121;SDS011;7139;48.114;11.442;2024-03-22T09:46:44;4.80;;;4.40;;
14121;SDS011;7139;48.114;11.442;2024-03-22T09:49:14;5.90;;;4.13;;
14121;SDS011;7139;48.114;11.442;2024-03-22T09:51:43;5.43;;;3.97;;
14121;SDS011;7139;48.114;11.442;2024-03-22T09:54:17;6.97;;;4.37;;
14121;SDS011;7139;48.114;11.442;2024-03-22T09:56:44;4.93;;;4.50;;
14121;SDS011;7139;48.114;11.442;2024-03-22T09:59:15;6.30;;;4.50;;
14121;SDS011;7139;48.114;11.442;2024-03-22T10:01:42;5.93;;;4.80;;
14121;SDS011;7139;48.114;11.442;2024-03-22T10:04:10;5.30;;;4.37;;
14121;SDS011;7139;48.114;11.442;2024-03-22T10:06:37;4.50;;;3.80;;
14121;SDS011;7139;48.114;11.442;2024-03-22T10:09:05;4.57;;;4.17;;
14121;SDS011;7139;48.114;11.442;2024-03-22T10:11:33;4.93;;;3.70;;
14121;SDS011;7139;48.114;11.442;2024-03-22T10:14:01;5.37;;;4.10;;
14121;SDS011;7139;48.114;11.442;2024-03-22T10:16:32;6.47;;;4.50;;
14121;SDS011;7139;48.114;11.442;2024-03-22T10:19:00;5.33;;;4.17;;
14121;SDS011;7139;48.114;11.442;2024-03-22T10:21:26;8.07;;;4.90;;
14121;SDS011;7139;48.114;11.442;2024-03-22T10:23:55;8.17;;;4.97;;
14121;SDS011;7139;48.114;11.442;2024-03-22T10:26:21;4.80;;;4.40;;
14121;SDS011;7139;48.114;11.442;2024-03-22T10:28:48;4.87;;;4.40;;
14121;SDS011;7139;48.114;11.442;2024-03-22T10:31:14;4.70;;;4.10;;
14121;SDS011;7139;48.114;11.442;2024-03-22T10:33:41;5.93;;;4.00;;
14121;SDS011;7139;48.114;11.442;2024-03-22T10:36:09;4.80;;;4.30;;
14121;SDS011;7139;48.114;11.442;2024-03-22T10:38:37;5.10;;;4.50;;
14121;SDS011;7139;48.114;11.442;2024-03-22T10:41:06;5.20;;;4.70;;
14121;SDS011;7139;48.114;11.442;2024-03-22T10:43:33;6.00;;;5.20;;
14121;SDS011;7139;48.114;11.442;2024-03-22T10:46:00;4.70;;;4.30;;
14121;SDS011;7139;48.114;11.442;2024-03-22T10:48:29;5.97;;;4.53;;
14121;SDS011;7139;48.114;11.442;2024-03-22T10:50:57;5.20;;;4.10;;
14121;SDS011;7139;48.114;11.442;2024-03-22T10:53:26;5.40;;;4.20;;
14121;SDS011;7139;48.114;11.442;2024-03-22T10:55:54;4.80;;;4.40;;
14121;SDS011;7139;48.114;11.442;2024-03-22T10:58:27;5.40;;;3.77;;
14121;SDS011;7139;48.114;11.442;2024-03-22T11:00:53;4.83;;;4.33;;
14121;SDS011;7139;48.114;11.442;2024-03-22T11:03:24;5.30;;;4.10;;
14121;SDS011;7139;48.114;11.442;2024-03-22T11:05:53;4.83;;;4.33;;
14121;SDS011;7139;48.114;11.442;2024-03-22T11:08:24;4.87;;;4.20;;
14121;SDS011;7139;48.114;11.442;2024-03-22T11:10:51;5.17;;;4.67;;
14121;SDS011;7139;48.114;11.442;2024-03-22T11:13:18;6.87;;;4.70;;
14121;SDS011;7139;48.114;11.442;2024-03-22T11:15:48;5.43;;;4.60;;
14121;SDS011;7139;48.114;11.442;2024-03-22T11:18:15;7.53;;;4.60;;
14121;SDS011;7139;48.114;11.442;2024-03-22T11:20:41;5.20;;;4.63;;
14121;SDS011;7139;48.114;11.442;2024-03-22T11:23:10;4.93;;;4.47;;
14121;SDS011;7139;48.114;11.442;2024-03-22T11:25:37;7.40;;;5.60;;
14121;SDS011;7139;48.114;11.442;2024-03-22T11:28:04;5.53;;;4.93;;
14121;SDS011;7139;48.114;11.442;2024-03-22T11:30:31;7.63;;;5.10;;
14121;SDS011;7139;48.114;11.442;2024-03-22T11:33:02;6.20;;;5.30;;
14121;SDS011;7139;48.114;11.442;2024-03-22T11:35:29;6.00;;;4.90;;
14121;SDS011;7139;48.114;11.442;2024-03-22T11:37:55;6.03;;;5.43;;
14121;SDS011;7139;48.114;11.442;2024-03-22T11:40:23;5.60;;;5.10;;
14121;SDS011;7139;48.114;11.442;2024-03-22T11:42:51;5.87;;;5.10;;
14121;SDS011;7139;48.114;11.442;2024-03-22T11:45:19;5.90;;;5.10;;
14121;SDS011;7139;48.114;11.442;2024-03-22T11:47:46;7.20;;;4.37;;
14121;SDS011;7139;48.114;11.442;2024-03-22T11:50:15;5.30;;;4.77;;
14121;SDS011;7139;48.114;11.442;2024-03-22T11:52:41;5.30;;;4.80;;
14121;SDS011;7139;48.114;11.442;2024-03-22T11:55:08;5.30;;;4.70;;
14121;SDS011;7139;48.114;11.442;2024-03-22T11:57:35;5.60;;;5.10;;
14121;SDS011;7139;48.114;11.442;2024-03-22T12:00:02;5.73;;;5.13;;
14121;SDS011;7139;48.114;11.442;2024-03-22T12:02:31;4.80;;;4.30;;
14121;SDS011;7139;48.114;11.442;2024-03-22T12:04:59;5.00;;;4.50;;
14121;SDS011;7139;48.114;11.442;2024-03-22T12:07:28;6.50;;;4.50;;
14121;SDS011;7139;48.114;11.442;2024-03-22T12:09:55;6.07;;;5.00;;
14121;SDS011;7139;48.114;11.442;2024-03-22T12:12:21;5.30;;;4.80;;
14121;SDS011;7139;48.114;11.442;2024-03-22T12:14:48;5.47;;;4.73;;
14121;SDS011;7139;48.114;11.442;2024-03-22T12:17:16;5.03;;;4.10;;
14121;SDS011;7139;48.114;11.442;2024-03-22T12:19:43;5.43;;;4.57;;
14121;SDS011;7139;48.114;11.442;2024-03-22T12:22:09;4.67;;;4.20;;
14121;SDS011;7139;48.114;11.442;2024-03-22T12:24:37;6.30;;;4.60;;
14121;SDS011;7139;48.114;11.442;2024-03-22T12:27:03;4.60;;;4.20;;
14121;SDS011;7139;48.114;11.442;2024-03-22T12:29:31;4.70;;;4.20;;
14121;SDS011;7139;48.114;11.442;2024-03-22T12:31:58;5.23;;;4.73;;
14121;SDS011;7139;48.114;11.442;2024-03-22T12:34:26;5.60;;;4.80;;
14121;SDS011;7139;48.114;11.442;2024-03-22T12:36:52;5.67;;;4.67;;
14121;SDS011;7139;48.114;11.442;2024-03-22T12:39:19;6.70;;;4.43;;
14121;SDS011;7139;48.114;11.442;2024-03-22T12:41:46;4.20;;;3.80;;
14121;SDS011;7139;48.114;11.442;2024-03-22T12:44:14;4.93;;;4.20;;
14121;SDS011;7139;48.114;11.442;2024-03-22T12:46:40;3.93;;;3.53;;
14121;SDS011;7139;48.114;11.442;2024-03-22T12:49:09;4.10;;;3.63;;
14121;SDS011;7139;48.114;11.442;2024-03-22T12:51:35;5.53;;;3.70;;
14121;SDS011;7139;48.114;11.442;2024-03-22T12:54:02;4.67;;;3.60;;
14121;SDS011;7139;48.114;11.442;2024-03-22T12:56:28;4.27;;;3.90;;
14121;SDS011;7139;48.114;11.442;2024-03-22T12:58:56;4.20;;;3.70;;
14121;SDS011;7139;48.114;11.442;2024-03-22T13:01:22;4.77;;;3.80;;
14121;SDS011;7139;48.114;11.442;2024-03-22T13:03:49;4.70;;;3.50;;
14121;SDS011;7139;48.114;11.442;2024-03-22T13:06:15;5.80;;;5.30;;
14121;SDS011;7139;48.114;11.442;2024-03-22T13:08:41;6.20;;;4.93;;
14121;SDS011;7139;48.114;11.442;2024-03-22T13:11:07;5.13;;;3.37;;
14121;SDS011;7139;48.114;11.442;2024-03-22T13:13:34;4.97;;;3.67;;
14121;SDS011;7139;48.114;11.442;2024-03-22T13:16:01;4.50;;;3.97;;
14121;SDS011;7139;48.114;11.442;2024-03-22T13:18:28;4.30;;;3.70;;
14121;SDS011;7139;48.114;11.442;2024-03-22T13:20:55;4.27;;;3.87;;
14121;SDS011;7139;48.114;11.442;2024-03-22T13:23:21;4.40;;;3.60;;
14121;SDS011;7139;48.114;11.442;2024-03-22T13:25:48;4.37;;;3.57;;
14121;SDS011;7139;48.114;11.442;2024-03-22T13:28:15;4.43;;;3.80;;
14121;SDS011;7139;48.114;11.442;2024-03-22T13:30:45;3.90;;;3.60;;
14121;SDS011;7139;48.114;11.442;2024-03-22T13:33:12;4.23;;;3.83;;
14121;SDS011;7139;48.114;11.442;2024-03-22T13:35:39;3.93;;;3.53;;
14121;SDS011;7139;48.114;11.442;2024-03-22T13:38:06;4.23;;;3.33;;
14121;SDS011;7139;48.114;11.442;2024-03-22T13:40:38;4.17;;;3.40;;
14121;SDS011;7139;48.114;11.442;2024-03-22T13:43:05;4.27;;;3.07;;
14121;SDS011;7139;48.114;11.442;2024-03-22T13:45:32;5.37;;;2.90;;
14121;SDS011;7139;48.114;11.442;2024-03-22T13:47:58;3.30;;;3.00;;
14121;SDS011;7139;48.114;11.442;2024-03-22T13:50:26;3.03;;;2.73;;
14121;SDS011;7139;48.114;11.442;2024-03-22T13:52:51;3.23;;;2.93;;
14121;SDS011;7139;48.114;11.442;2024-03-22T13:55:18;3.43;;;2.83;;
14121;SDS011;7139;48.114;11.442;2024-03-22T13:57:44;3.20;;;2.77;;
14121;SDS011;7139;48.114;11.442;2024-03-22T14:00:11;3.77;;;2.70;;
14121;SDS011;7139;48.114;11.442;2024-03-22T14:02:39;3.30;;;2.90;;
14121;SDS011;7139;48.114;11.442;2024-03-22T14:05:06;3.70;;;2.80;;
14121;SDS011;7139;48.114;11.442;2024-03-22T14:07:34;3.47;;;2.37;;
14121;SDS011;7139;48.114;11.442;2024-03-22T14:10:05;4.07;;;2.73;;
14121;SDS011;7139;48.114;11.442;2024-03-22T14:12:31;2.97;;;2.60;;
14121;SDS011;7139;48.114;11.442;2024-03-22T14:14:58;2.83;;;2.63;;
14121;SDS011;7139;48.114;11.442;2024-03-22T14:17:24;3.73;;;2.80;;
14121;SDS011;7139;48.114;11.442;2024-03-22T14:19:50;2.80;;;2.27;;
14121;SDS011;7139;48.114;11.442;2024-03-22T14:22:17;3.40;;;2.20;;
14121;SDS011;7139;48.114;11.442;2024-03-22T14:24:46;3.27;;;2.00;;
14121;SDS011;7139;48.114;11.442;2024-03-22T14:27:11;2.17;;;1.87;;
14121;SDS011;7139;48.114;11.442;2024-03-22T14:29:38;1.67;;;1.57;;
14121;SDS011;7139;48.114;11.442;2024-03-22T14:32:04;1.80;;;1.60;;